Etusivu
METAR-TAF:

METAR-TAF

Lentoasemat :

Chanián kansainvälinen lentoasema

Hania, Kreeta, Kreikka

Leveyspiiri: 35-29N, Pituuspiiri: 024-07E, korkeus merenpinnasta: 146 m

Tämänhetkinen sää

Tämä raportti tehtiin 42 minuuttia sitten, kello 15.20 UTC
Tuuli 8 kn idästä/koillisesta
Lämpötila 26°C
Kosteus 48%
Ilmanpaine 1015 hPa
Näkyvyys 10 km tai enemmän
ei pilviä alle 1500 m:ssä eikä cumulonimbus-pilviä

METAR: LGSA 241520Z 07008KT CAVOK 26/14 Q1015

Aika: 19:02 (16:02 UTC)

Sääennuste

Tämä raportti tehtiin 5 tuntia ja 2 minuuttia sitten, kello 11.00 UTC
Ennuste voimassa 24. päivästä klo 12 UTC - 25. päivään klo 12 UTC
Tuuli 10 kn luoteesta
Näkyvyys 10 km tai enemmän
Muutamia pilviä 3000 ft:n korkeudessa
Tulossa
24. päivästä klo 12 UTC - 24. päivään klo 14 UTC
Tuuli 5 kn eri suunnista
Tulossa
25. päivästä klo 06 UTC - 25. päivään klo 08 UTC
Tuuli 10 kn idästä

TAF: LGSA 241100Z 2412/2512 32010KT 9999 FEW030 BECMG 2412/2414 VRB05KT BECMG 2506/2508 08010KT

Säähavainnot ja -ennusteet yli 4000 lentoasemalta (METAR- ja TAF-raportit).

Käytössä olevat sääasemat on merkitty karttaan keltaisilla ja punaisilla pisteillä.

Aseta hiiri pisteen päälle nähdäksesi sääaseman nimen.

Klikkaa sitten nähdäksesi säähavainnot ja -ennusteet.

Kartan vaihtaminen: klikkaa mustalla rastilla varustettuja vihreitä pisteitä, niin voit zoomata sisään; viivalla varustettua vihreää pistettä, niin voit zoomata ulos tai vihreitä nuolia, niin pääset viereisille kartoille.


METAR-TAF: